sensor_id;sensor_type;location;lat;lon;timestamp;temperature;humidity
20891;DHT22;10605;52.968;8.844;2024-03-02T00:00:44;6.30;99.90
20891;DHT22;10605;52.968;8.844;2024-03-02T00:03:12;6.30;99.90
20891;DHT22;10605;52.968;8.844;2024-03-02T00:05:39;6.40;99.90
20891;DHT22;10605;52.968;8.844;2024-03-02T00:08:07;6.30;99.90
20891;DHT22;10605;52.968;8.844;2024-03-02T00:10:37;6.30;99.90
20891;DHT22;10605;52.968;8.844;2024-03-02T00:13:05;6.20;99.90
20891;DHT22;10605;52.968;8.844;2024-03-02T00:15:46;6.20;99.90
20891;DHT22;10605;52.968;8.844;2024-03-02T00:18:20;6.20;99.90
20891;DHT22;10605;52.968;8.844;2024-03-02T00:20:47;6.30;99.90
20891;DHT22;10605;52.968;8.844;2024-03-02T00:23:15;6.30;99.90
20891;DHT22;10605;52.968;8.844;2024-03-02T00:25:46;6.40;99.90
20891;DHT22;10605;52.968;8.844;2024-03-02T00:33:42;6.60;99.90
20891;DHT22;10605;52.968;8.844;2024-03-02T00:36:10;6.50;99.90
20891;DHT22;10605;52.968;8.844;2024-03-02T00:41:17;6.60;99.90
20891;DHT22;10605;52.968;8.844;2024-03-02T00:46:17;6.50;99.90
20891;DHT22;10605;52.968;8.844;2024-03-02T00:48:56;6.50;99.90
20891;DHT22;10605;52.968;8.844;2024-03-02T00:51:23;6.60;99.90
20891;DHT22;10605;52.968;8.844;2024-03-02T00:53:50;6.60;99.90
20891;DHT22;10605;52.968;8.844;2024-03-02T00:56:17;6.60;99.90
20891;DHT22;10605;52.968;8.844;2024-03-02T00:58:43;6.60;99.90
20891;DHT22;10605;52.968;8.844;2024-03-02T01:01:09;6.60;99.90
20891;DHT22;10605;52.968;8.844;2024-03-02T01:03:35;6.50;99.90
20891;DHT22;10605;52.968;8.844;2024-03-02T01:06:02;6.60;99.90
20891;DHT22;10605;52.968;8.844;2024-03-02T01:08:28;6.60;99.90
20891;DHT22;10605;52.968;8.844;2024-03-02T01:10:54;6.50;99.90
20891;DHT22;10605;52.968;8.844;2024-03-02T01:13:22;6.40;99.90
20891;DHT22;10605;52.968;8.844;2024-03-02T01:15:47;6.30;99.90
20891;DHT22;10605;52.968;8.844;2024-03-02T01:18:13;6.40;99.90
20891;DHT22;10605;52.968;8.844;2024-03-02T01:20:39;6.30;99.90
20891;DHT22;10605;52.968;8.844;2024-03-02T01:23:04;6.30;99.90
20891;DHT22;10605;52.968;8.844;2024-03-02T01:25:30;6.30;99.90
20891;DHT22;10605;52.968;8.844;2024-03-02T01:27:56;6.30;99.90
20891;DHT22;10605;52.968;8.844;2024-03-02T01:30:21;6.30;99.90
20891;DHT22;10605;52.968;8.844;2024-03-02T01:32:50;6.30;99.90
20891;DHT22;10605;52.968;8.844;2024-03-02T01:35:16;6.20;99.90
20891;DHT22;10605;52.968;8.844;2024-03-02T01:37:42;6.10;99.90
20891;DHT22;10605;52.968;8.844;2024-03-02T01:40:08;6.10;99.90
20891;DHT22;10605;52.968;8.844;2024-03-02T01:42:37;6.10;99.90
20891;DHT22;10605;52.968;8.844;2024-03-02T01:45:08;6.00;99.90
20891;DHT22;10605;52.968;8.844;2024-03-02T01:47:34;6.10;99.90
20891;DHT22;10605;52.968;8.844;2024-03-02T01:50:00;6.00;99.90
20891;DHT22;10605;52.968;8.844;2024-03-02T01:52:27;6.00;99.90
20891;DHT22;10605;52.968;8.844;2024-03-02T01:54:52;6.00;99.90
20891;DHT22;10605;52.968;8.844;2024-03-02T01:57:19;5.90;99.90
20891;DHT22;10605;52.968;8.844;2024-03-02T01:59:45;5.80;99.90
20891;DHT22;10605;52.968;8.844;2024-03-02T02:02:13;5.80;99.90
20891;DHT22;10605;52.968;8.844;2024-03-02T02:04:39;5.80;99.90
20891;DHT22;10605;52.968;8.844;2024-03-02T02:07:05;5.90;99.90
20891;DHT22;10605;52.968;8.844;2024-03-02T02:09:32;5.90;99.90
20891;DHT22;10605;52.968;8.844;2024-03-02T02:11:57;5.90;99.90
20891;DHT22;10605;52.968;8.844;2024-03-02T02:14:23;5.80;99.90
20891;DHT22;10605;52.968;8.844;2024-03-02T02:16:49;5.70;99.90
20891;DHT22;10605;52.968;8.844;2024-03-02T02:19:15;5.60;99.90
20891;DHT22;10605;52.968;8.844;2024-03-02T02:21:43;5.60;99.90
20891;DHT22;10605;52.968;8.844;2024-03-02T02:24:09;5.60;99.90
20891;DHT22;10605;52.968;8.844;2024-03-02T02:26:35;5.60;99.90
20891;DHT22;10605;52.968;8.844;2024-03-02T02:29:01;5.60;99.90
20891;DHT22;10605;52.968;8.844;2024-03-02T02:31:36;5.60;99.90
20891;DHT22;10605;52.968;8.844;2024-03-02T02:34:01;5.50;99.90
20891;DHT22;10605;52.968;8.844;2024-03-02T02:36:27;5.50;99.90
20891;DHT22;10605;52.968;8.844;2024-03-02T02:38:53;5.40;99.90
20891;DHT22;10605;52.968;8.844;2024-03-02T02:41:18;5.30;99.90
20891;DHT22;10605;52.968;8.844;2024-03-02T02:43:44;5.20;99.90
20891;DHT22;10605;52.968;8.844;2024-03-02T02:46:09;5.20;99.90
20891;DHT22;10605;52.968;8.844;2024-03-02T02:48:35;5.20;99.90
20891;DHT22;10605;52.968;8.844;2024-03-02T02:51:01;5.20;99.90
20891;DHT22;10605;52.968;8.844;2024-03-02T02:53:27;5.10;99.90
20891;DHT22;10605;52.968;8.844;2024-03-02T02:55:53;5.10;99.90
20891;DHT22;10605;52.968;8.844;2024-03-02T02:58:18;5.00;99.90
20891;DHT22;10605;52.968;8.844;2024-03-02T03:00:44;5.00;99.90
20891;DHT22;10605;52.968;8.844;2024-03-02T03:03:10;5.00;99.90
20891;DHT22;10605;52.968;8.844;2024-03-02T03:05:35;4.90;99.90
20891;DHT22;10605;52.968;8.844;2024-03-02T03:08:01;5.00;99.90
20891;DHT22;10605;52.968;8.844;2024-03-02T03:10:27;5.00;99.90
20891;DHT22;10605;52.968;8.844;2024-03-02T03:12:53;4.90;99.90
20891;DHT22;10605;52.968;8.844;2024-03-02T03:15:21;4.90;99.90
20891;DHT22;10605;52.968;8.844;2024-03-02T03:17:47;4.90;99.90
20891;DHT22;10605;52.968;8.844;2024-03-02T03:20:12;5.00;99.90
20891;DHT22;10605;52.968;8.844;2024-03-02T03:22:39;5.00;99.90
20891;DHT22;10605;52.968;8.844;2024-03-02T03:25:05;5.00;99.90
20891;DHT22;10605;52.968;8.844;2024-03-02T03:27:31;5.10;99.90
20891;DHT22;10605;52.968;8.844;2024-03-02T03:29:57;5.10;99.90
20891;DHT22;10605;52.968;8.844;2024-03-02T03:32:23;5.10;99.90
20891;DHT22;10605;52.968;8.844;2024-03-02T03:34:48;5.20;99.90
20891;DHT22;10605;52.968;8.844;2024-03-02T03:37:14;5.20;99.90
20891;DHT22;10605;52.968;8.844;2024-03-02T03:39:41;5.20;99.90
20891;DHT22;10605;52.968;8.844;2024-03-02T03:42:06;5.30;99.90
20891;DHT22;10605;52.968;8.844;2024-03-02T03:44:32;5.30;99.90
20891;DHT22;10605;52.968;8.844;2024-03-02T03:46:58;5.20;99.90
20891;DHT22;10605;52.968;8.844;2024-03-02T03:49:24;5.20;99.90
20891;DHT22;10605;52.968;8.844;2024-03-02T03:51:50;5.20;99.90
20891;DHT22;10605;52.968;8.844;2024-03-02T03:54:15;5.20;99.90
20891;DHT22;10605;52.968;8.844;2024-03-02T03:56:41;5.30;99.90
20891;DHT22;10605;52.968;8.844;2024-03-02T03:59:07;5.40;99.90
20891;DHT22;10605;52.968;8.844;2024-03-02T04:01:32;5.30;99.90
20891;DHT22;10605;52.968;8.844;2024-03-02T04:03:59;5.40;99.90
20891;DHT22;10605;52.968;8.844;2024-03-02T04:06:24;5.40;99.90
20891;DHT22;10605;52.968;8.844;2024-03-02T04:08:50;5.50;99.90
20891;DHT22;10605;52.968;8.844;2024-03-02T04:11:16;5.50;99.90
20891;DHT22;10605;52.968;8.844;2024-03-02T04:13:42;5.50;99.90
20891;DHT22;10605;52.968;8.844;2024-03-02T04:16:07;5.50;99.90
20891;DHT22;10605;52.968;8.844;2024-03-02T04:18:33;5.50;99.90
20891;DHT22;10605;52.968;8.844;2024-03-02T04:20:59;5.70;99.90
20891;DHT22;10605;52.968;8.844;2024-03-02T04:23:26;5.70;99.90
20891;DHT22;10605;52.968;8.844;2024-03-02T04:25:51;5.80;99.90
20891;DHT22;10605;52.968;8.844;2024-03-02T04:28:17;5.80;99.90
20891;DHT22;10605;52.968;8.844;2024-03-02T04:30:43;5.80;99.90
20891;DHT22;10605;52.968;8.844;2024-03-02T04:33:08;5.80;99.90
20891;DHT22;10605;52.968;8.844;2024-03-02T04:35:36;5.80;99.90
20891;DHT22;10605;52.968;8.844;2024-03-02T04:38:02;5.90;99.90
20891;DHT22;10605;52.968;8.844;2024-03-02T04:40:27;5.90;99.90
20891;DHT22;10605;52.968;8.844;2024-03-02T04:42:53;5.80;99.90
20891;DHT22;10605;52.968;8.844;2024-03-02T04:45:19;5.80;99.90
20891;DHT22;10605;52.968;8.844;2024-03-02T04:47:45;5.80;99.90
20891;DHT22;10605;52.968;8.844;2024-03-02T04:50:10;5.70;99.90
20891;DHT22;10605;52.968;8.844;2024-03-02T04:52:36;5.70;99.90
20891;DHT22;10605;52.968;8.844;2024-03-02T04:55:02;5.70;99.90
20891;DHT22;10605;52.968;8.844;2024-03-02T04:57:47;5.60;99.90
20891;DHT22;10605;52.968;8.844;2024-03-02T05:00:13;5.70;99.90
20891;DHT22;10605;52.968;8.844;2024-03-02T05:02:39;5.70;99.90
20891;DHT22;10605;52.968;8.844;2024-03-02T05:05:04;5.70;99.90
20891;DHT22;10605;52.968;8.844;2024-03-02T05:07:30;5.70;99.90
20891;DHT22;10605;52.968;8.844;2024-03-02T05:09:56;5.70;99.90
20891;DHT22;10605;52.968;8.844;2024-03-02T05:12:22;5.60;99.90
20891;DHT22;10605;52.968;8.844;2024-03-02T05:15:20;5.60;99.90
20891;DHT22;10605;52.968;8.844;2024-03-02T05:17:47;5.50;99.90
20891;DHT22;10605;52.968;8.844;2024-03-02T05:20:13;5.50;99.90
20891;DHT22;10605;52.968;8.844;2024-03-02T05:22:38;5.60;99.90
20891;DHT22;10605;52.968;8.844;2024-03-02T05:25:05;5.60;99.90
20891;DHT22;10605;52.968;8.844;2024-03-02T05:27:31;5.50;99.90
20891;DHT22;10605;52.968;8.844;2024-03-02T05:29:58;5.40;99.90
20891;DHT22;10605;52.968;8.844;2024-03-02T05:32:24;5.40;99.90
20891;DHT22;10605;52.968;8.844;2024-03-02T05:34:49;5.40;99.90
20891;DHT22;10605;52.968;8.844;2024-03-02T05:37:16;5.40;99.90
20891;DHT22;10605;52.968;8.844;2024-03-02T05:39:42;5.30;99.90
20891;DHT22;10605;52.968;8.844;2024-03-02T05:42:10;5.40;99.90
20891;DHT22;10605;52.968;8.844;2024-03-02T05:44:36;5.50;99.90
20891;DHT22;10605;52.968;8.844;2024-03-02T05:47:02;5.40;99.90
20891;DHT22;10605;52.968;8.844;2024-03-02T05:49:29;5.40;99.90
20891;DHT22;10605;52.968;8.844;2024-03-02T05:51:55;5.40;99.90
20891;DHT22;10605;52.968;8.844;2024-03-02T05:54:20;5.40;99.90
20891;DHT22;10605;52.968;8.844;2024-03-02T05:56:46;5.30;99.90
20891;DHT22;10605;52.968;8.844;2024-03-02T05:59:12;5.30;99.90
20891;DHT22;10605;52.968;8.844;2024-03-02T06:01:45;5.30;99.90
20891;DHT22;10605;52.968;8.844;2024-03-02T06:04:17;5.30;99.90
20891;DHT22;10605;52.968;8.844;2024-03-02T06:06:43;5.30;99.90
20891;DHT22;10605;52.968;8.844;2024-03-02T06:09:12;5.30;99.90
20891;DHT22;10605;52.968;8.844;2024-03-02T06:11:41;5.30;99.90
20891;DHT22;10605;52.968;8.844;2024-03-02T06:14:08;5.30;99.90
20891;DHT22;10605;52.968;8.844;2024-03-02T06:16:34;5.30;99.90
20891;DHT22;10605;52.968;8.844;2024-03-02T06:19:00;5.40;99.90
20891;DHT22;10605;52.968;8.844;2024-03-02T06:21:27;5.40;99.90
20891;DHT22;10605;52.968;8.844;2024-03-02T06:23:53;5.40;99.90
20891;DHT22;10605;52.968;8.844;2024-03-02T06:26:19;5.40;99.90
20891;DHT22;10605;52.968;8.844;2024-03-02T06:28:45;5.40;99.90
20891;DHT22;10605;52.968;8.844;2024-03-02T06:31:11;5.50;99.90
20891;DHT22;10605;52.968;8.844;2024-03-02T06:33:36;5.60;99.90
20891;DHT22;10605;52.968;8.844;2024-03-02T06:36:02;5.70;99.90
20891;DHT22;10605;52.968;8.844;2024-03-02T06:38:28;5.70;99.90
20891;DHT22;10605;52.968;8.844;2024-03-02T06:40:54;5.70;99.90
20891;DHT22;10605;52.968;8.844;2024-03-02T06:43:21;5.80;99.90
20891;DHT22;10605;52.968;8.844;2024-03-02T06:45:50;6.00;99.90
20891;DHT22;10605;52.968;8.844;2024-03-02T06:48:17;6.10;99.90
20891;DHT22;10605;52.968;8.844;2024-03-02T06:50:49;6.10;99.90
20891;DHT22;10605;52.968;8.844;2024-03-02T06:53:15;6.30;99.90
20891;DHT22;10605;52.968;8.844;2024-03-02T06:55:43;6.40;99.90
20891;DHT22;10605;52.968;8.844;2024-03-02T06:58:11;6.60;99.90
20891;DHT22;10605;52.968;8.844;2024-03-02T07:00:36;6.60;99.90
20891;DHT22;10605;52.968;8.844;2024-03-02T07:03:02;6.80;99.90
20891;DHT22;10605;52.968;8.844;2024-03-02T07:05:28;6.90;99.90
20891;DHT22;10605;52.968;8.844;2024-03-02T07:07:53;6.90;99.90
20891;DHT22;10605;52.968;8.844;2024-03-02T07:10:19;6.90;99.90
20891;DHT22;10605;52.968;8.844;2024-03-02T07:12:45;7.00;99.90
20891;DHT22;10605;52.968;8.844;2024-03-02T07:15:10;7.20;99.90
20891;DHT22;10605;52.968;8.844;2024-03-02T07:17:47;7.40;99.90
20891;DHT22;10605;52.968;8.844;2024-03-02T07:20:12;7.70;99.90
20891;DHT22;10605;52.968;8.844;2024-03-02T07:22:38;8.00;99.90
20891;DHT22;10605;52.968;8.844;2024-03-02T07:25:05;8.10;99.90
20891;DHT22;10605;52.968;8.844;2024-03-02T07:27:32;8.00;99.90
20891;DHT22;10605;52.968;8.844;2024-03-02T07:29:59;8.00;99.90
20891;DHT22;10605;52.968;8.844;2024-03-02T07:32:24;8.20;99.90
20891;DHT22;10605;52.968;8.844;2024-03-02T07:34:50;8.30;99.90
20891;DHT22;10605;52.968;8.844;2024-03-02T07:37:16;8.30;99.90
20891;DHT22;10605;52.968;8.844;2024-03-02T07:39:44;8.60;99.90
20891;DHT22;10605;52.968;8.844;2024-03-02T07:42:10;8.60;99.90
20891;DHT22;10605;52.968;8.844;2024-03-02T07:44:36;8.60;99.90
20891;DHT22;10605;52.968;8.844;2024-03-02T07:47:02;8.60;99.90
20891;DHT22;10605;52.968;8.844;2024-03-02T07:49:27;8.40;99.90
20891;DHT22;10605;52.968;8.844;2024-03-02T07:51:53;8.30;99.90
20891;DHT22;10605;52.968;8.844;2024-03-02T07:54:19;8.20;99.90
20891;DHT22;10605;52.968;8.844;2024-03-02T07:56:45;8.10;99.90
20891;DHT22;10605;52.968;8.844;2024-03-02T07:59:10;8.10;99.90
20891;DHT22;10605;52.968;8.844;2024-03-02T08:01:36;8.10;99.90
20891;DHT22;10605;52.968;8.844;2024-03-02T08:04:02;8.10;99.90
20891;DHT22;10605;52.968;8.844;2024-03-02T08:06:31;8.20;99.90
20891;DHT22;10605;52.968;8.844;2024-03-02T08:09:00;8.30;99.90
20891;DHT22;10605;52.968;8.844;2024-03-02T08:11:26;8.40;99.90
20891;DHT22;10605;52.968;8.844;2024-03-02T08:13:52;8.30;99.90
20891;DHT22;10605;52.968;8.844;2024-03-02T08:16:21;8.40;99.90
20891;DHT22;10605;52.968;8.844;2024-03-02T08:18:50;8.30;99.90
20891;DHT22;10605;52.968;8.844;2024-03-02T08:21:16;8.40;99.90
20891;DHT22;10605;52.968;8.844;2024-03-02T08:23:43;8.50;99.90
20891;DHT22;10605;52.968;8.844;2024-03-02T08:26:09;8.50;99.90
20891;DHT22;10605;52.968;8.844;2024-03-02T08:28:36;8.50;99.90
20891;DHT22;10605;52.968;8.844;2024-03-02T08:31:08;8.50;99.90
20891;DHT22;10605;52.968;8.844;2024-03-02T08:33:36;8.60;99.90
20891;DHT22;10605;52.968;8.844;2024-03-02T08:36:02;8.60;99.90
20891;DHT22;10605;52.968;8.844;2024-03-02T08:38:28;8.70;99.90
20891;DHT22;10605;52.968;8.844;2024-03-02T08:40:53;8.90;99.90
20891;DHT22;10605;52.968;8.844;2024-03-02T08:43:19;9.40;99.90
20891;DHT22;10605;52.968;8.844;2024-03-02T08:45:45;10.00;99.90
20891;DHT22;10605;52.968;8.844;2024-03-02T08:48:12;10.60;99.90
20891;DHT22;10605;52.968;8.844;2024-03-02T08:50:38;11.10;99.90
20891;DHT22;10605;52.968;8.844;2024-03-02T08:53:04;11.70;99.90
20891;DHT22;10605;52.968;8.844;2024-03-02T08:55:30;11.90;99.90
20891;DHT22;10605;52.968;8.844;2024-03-02T08:57:56;12.20;99.90
20891;DHT22;10605;52.968;8.844;2024-03-02T09:00:22;12.30;99.90
20891;DHT22;10605;52.968;8.844;2024-03-02T09:02:48;12.50;99.90
20891;DHT22;10605;52.968;8.844;2024-03-02T09:05:14;12.60;99.90
20891;DHT22;10605;52.968;8.844;2024-03-02T09:07:39;12.90;99.90
20891;DHT22;10605;52.968;8.844;2024-03-02T09:10:08;13.10;99.90
20891;DHT22;10605;52.968;8.844;2024-03-02T09:12:35;13.60;99.90
20891;DHT22;10605;52.968;8.844;2024-03-02T09:15:03;14.10;99.90
20891;DHT22;10605;52.968;8.844;2024-03-02T09:17:30;14.20;99.90
20891;DHT22;10605;52.968;8.844;2024-03-02T09:19:55;14.80;99.90
20891;DHT22;10605;52.968;8.844;2024-03-02T09:22:22;14.90;99.90
20891;DHT22;10605;52.968;8.844;2024-03-02T09:24:52;14.70;99.90
20891;DHT22;10605;52.968;8.844;2024-03-02T09:27:42;14.80;99.90
20891;DHT22;10605;52.968;8.844;2024-03-02T09:30:35;14.20;99.90
20891;DHT22;10605;52.968;8.844;2024-03-02T09:33:26;13.50;99.90
20891;DHT22;10605;52.968;8.844;2024-03-02T09:35:52;13.00;99.90
20891;DHT22;10605;52.968;8.844;2024-03-02T09:38:17;13.10;99.90
20891;DHT22;10605;52.968;8.844;2024-03-02T09:40:43;13.80;99.90
20891;DHT22;10605;52.968;8.844;2024-03-02T09:43:12;13.70;99.90
20891;DHT22;10605;52.968;8.844;2024-03-02T09:45:39;13.80;99.90
20891;DHT22;10605;52.968;8.844;2024-03-02T09:48:05;13.70;99.90
20891;DHT22;10605;52.968;8.844;2024-03-02T09:50:31;13.70;99.90
20891;DHT22;10605;52.968;8.844;2024-03-02T09:52:57;13.80;99.90
20891;DHT22;10605;52.968;8.844;2024-03-02T09:55:22;14.50;99.90
20891;DHT22;10605;52.968;8.844;2024-03-02T09:57:48;15.10;99.90
20891;DHT22;10605;52.968;8.844;2024-03-02T10:00:15;15.60;99.90
20891;DHT22;10605;52.968;8.844;2024-03-02T10:02:42;16.00;99.90
20891;DHT22;10605;52.968;8.844;2024-03-02T10:05:09;16.60;99.90
20891;DHT22;10605;52.968;8.844;2024-03-02T10:07:34;16.10;99.90
20891;DHT22;10605;52.968;8.844;2024-03-02T10:10:13;16.30;99.90
20891;DHT22;10605;52.968;8.844;2024-03-02T10:12:39;16.60;99.90
20891;DHT22;10605;52.968;8.844;2024-03-02T10:15:05;16.70;99.90
20891;DHT22;10605;52.968;8.844;2024-03-02T10:17:32;16.70;99.90
20891;DHT22;10605;52.968;8.844;2024-03-02T10:19:57;17.00;99.90
20891;DHT22;10605;52.968;8.844;2024-03-02T10:22:23;17.40;99.90
20891;DHT22;10605;52.968;8.844;2024-03-02T10:24:49;18.20;99.90
20891;DHT22;10605;52.968;8.844;2024-03-02T10:27:18;18.50;99.90
20891;DHT22;10605;52.968;8.844;2024-03-02T10:29:49;18.00;99.90
20891;DHT22;10605;52.968;8.844;2024-03-02T10:32:17;18.10;99.90
20891;DHT22;10605;52.968;8.844;2024-03-02T10:34:46;18.40;99.90
20891;DHT22;10605;52.968;8.844;2024-03-02T10:37:15;18.10;99.90
20891;DHT22;10605;52.968;8.844;2024-03-02T10:39:52;17.50;99.90
20891;DHT22;10605;52.968;8.844;2024-03-02T10:42:41;18.20;99.90
20891;DHT22;10605;52.968;8.844;2024-03-02T10:45:52;18.50;99.90
20891;DHT22;10605;52.968;8.844;2024-03-02T10:48:23;18.40;99.90
20891;DHT22;10605;52.968;8.844;2024-03-02T10:50:58;18.70;99.90
20891;DHT22;10605;52.968;8.844;2024-03-02T10:53:27;19.10;99.90
20891;DHT22;10605;52.968;8.844;2024-03-02T10:55:59;19.40;99.90
20891;DHT22;10605;52.968;8.844;2024-03-02T10:58:34;19.70;99.90
20891;DHT22;10605;52.968;8.844;2024-03-02T11:01:03;20.00;99.90
20891;DHT22;10605;52.968;8.844;2024-03-02T11:03:37;20.30;99.90
20891;DHT22;10605;52.968;8.844;2024-03-02T11:06:08;20.00;99.90
20891;DHT22;10605;52.968;8.844;2024-03-02T11:08:35;20.20;99.90
20891;DHT22;10605;52.968;8.844;2024-03-02T11:11:07;19.30;99.90
20891;DHT22;10605;52.968;8.844;2024-03-02T11:13:38;19.00;99.90
20891;DHT22;10605;52.968;8.844;2024-03-02T11:16:15;19.60;99.90
20891;DHT22;10605;52.968;8.844;2024-03-02T11:18:43;19.80;99.90
20891;DHT22;10605;52.968;8.844;2024-03-02T11:21:09;19.90;99.90
20891;DHT22;10605;52.968;8.844;2024-03-02T11:23:35;20.20;99.90
20891;DHT22;10605;52.968;8.844;2024-03-02T11:26:20;19.90;99.90
20891;DHT22;10605;52.968;8.844;2024-03-02T11:28:46;20.40;99.90
20891;DHT22;10605;52.968;8.844;2024-03-02T11:31:12;20.80;99.90
20891;DHT22;10605;52.968;8.844;2024-03-02T11:33:38;20.40;99.90
20891;DHT22;10605;52.968;8.844;2024-03-02T11:36:06;20.20;99.90
20891;DHT22;10605;52.968;8.844;2024-03-02T11:38:33;20.70;99.90
20891;DHT22;10605;52.968;8.844;2024-03-02T11:41:06;19.50;99.90
20891;DHT22;10605;52.968;8.844;2024-03-02T11:43:33;19.90;99.90
20891;DHT22;10605;52.968;8.844;2024-03-02T11:46:00;18.90;99.90
20891;DHT22;10605;52.968;8.844;2024-03-02T11:48:26;19.30;99.90
20891;DHT22;10605;52.968;8.844;2024-03-02T11:50:52;19.40;99.90
20891;DHT22;10605;52.968;8.844;2024-03-02T11:53:20;19.60;99.90
20891;DHT22;10605;52.968;8.844;2024-03-02T11:55:46;19.30;99.90
20891;DHT22;10605;52.968;8.844;2024-03-02T11:58:12;19.50;99.90
20891;DHT22;10605;52.968;8.844;2024-03-02T12:00:39;18.90;99.90
20891;DHT22;10605;52.968;8.844;2024-03-02T12:03:06;17.80;99.90
20891;DHT22;10605;52.968;8.844;2024-03-02T12:05:32;18.60;99.90
20891;DHT22;10605;52.968;8.844;2024-03-02T12:08:05;19.00;99.90
20891;DHT22;10605;52.968;8.844;2024-03-02T12:10:32;19.10;99.90
20891;DHT22;10605;52.968;8.844;2024-03-02T12:13:02;18.40;99.90
20891;DHT22;10605;52.968;8.844;2024-03-02T12:15:29;18.10;99.90
20891;DHT22;10605;52.968;8.844;2024-03-02T12:17:56;18.40;99.90
20891;DHT22;10605;52.968;8.844;2024-03-02T12:20:24;18.50;99.90
20891;DHT22;10605;52.968;8.844;2024-03-02T12:23:04;19.30;99.90
20891;DHT22;10605;52.968;8.844;2024-03-02T12:26:02;19.60;99.90
20891;DHT22;10605;52.968;8.844;2024-03-02T12:29:04;18.60;99.90
20891;DHT22;10605;52.968;8.844;2024-03-02T12:32:25;17.00;99.90
20891;DHT22;10605;52.968;8.844;2024-03-02T12:35:14;17.20;99.90
20891;DHT22;10605;52.968;8.844;2024-03-02T12:37:50;18.20;99.90
20891;DHT22;10605;52.968;8.844;2024-03-02T12:40:17;19.00;99.90
20891;DHT22;10605;52.968;8.844;2024-03-02T12:42:45;19.40;99.90
20891;DHT22;10605;52.968;8.844;2024-03-02T12:45:11;18.90;99.90
20891;DHT22;10605;52.968;8.844;2024-03-02T12:47:41;18.60;99.90
20891;DHT22;10605;52.968;8.844;2024-03-02T12:50:10;18.60;99.90
20891;DHT22;10605;52.968;8.844;2024-03-02T12:52:35;18.30;99.90
20891;DHT22;10605;52.968;8.844;2024-03-02T12:55:39;18.20;99.90
20891;DHT22;10605;52.968;8.844;2024-03-02T12:58:20;18.40;99.90
20891;DHT22;10605;52.968;8.844;2024-03-02T13:00:48;18.30;99.90
20891;DHT22;10605;52.968;8.844;2024-03-02T13:03:14;16.90;99.90
20891;DHT22;10605;52.968;8.844;2024-03-02T13:05:41;16.00;99.90
20891;DHT22;10605;52.968;8.844;2024-03-02T13:08:06;15.50;99.90
20891;DHT22;10605;52.968;8.844;2024-03-02T13:10:33;15.30;99.90
20891;DHT22;10605;52.968;8.844;2024-03-02T13:12:59;15.10;99.90
20891;DHT22;10605;52.968;8.844;2024-03-02T13:15:26;14.70;99.90
20891;DHT22;10605;52.968;8.844;2024-03-02T13:17:52;14.60;99.90
20891;DHT22;10605;52.968;8.844;2024-03-02T13:20:18;14.70;99.90
20891;DHT22;10605;52.968;8.844;2024-03-02T13:22:45;14.50;99.90
20891;DHT22;10605;52.968;8.844;2024-03-02T13:25:11;14.40;99.90
20891;DHT22;10605;52.968;8.844;2024-03-02T13:27:37;14.20;99.90
20891;DHT22;10605;52.968;8.844;2024-03-02T13:30:03;14.10;99.90
20891;DHT22;10605;52.968;8.844;2024-03-02T13:32:31;14.20;99.90
20891;DHT22;10605;52.968;8.844;2024-03-02T13:34:57;14.20;99.90
20891;DHT22;10605;52.968;8.844;2024-03-02T13:37:23;14.10;99.90
20891;DHT22;10605;52.968;8.844;2024-03-02T13:39:49;14.30;99.90
20891;DHT22;10605;52.968;8.844;2024-03-02T13:42:15;14.10;99.90
20891;DHT22;10605;52.968;8.844;2024-03-02T13:44:42;14.20;99.90
20891;DHT22;10605;52.968;8.844;2024-03-02T13:47:09;14.10;99.90
20891;DHT22;10605;52.968;8.844;2024-03-02T13:49:35;14.10;99.90
20891;DHT22;10605;52.968;8.844;2024-03-02T13:52:08;14.30;99.90
20891;DHT22;10605;52.968;8.844;2024-03-02T13:54:45;14.40;99.90
20891;DHT22;10605;52.968;8.844;2024-03-02T13:57:14;14.20;99.90
20891;DHT22;10605;52.968;8.844;2024-03-02T13:59:41;14.00;99.90
20891;DHT22;10605;52.968;8.844;2024-03-02T14:02:08;14.10;99.90
20891;DHT22;10605;52.968;8.844;2024-03-02T14:04:34;14.10;99.90
20891;DHT22;10605;52.968;8.844;2024-03-02T14:07:00;14.10;99.90
20891;DHT22;10605;52.968;8.844;2024-03-02T14:09:26;14.00;99.90
20891;DHT22;10605;52.968;8.844;2024-03-02T14:11:55;14.10;99.90
20891;DHT22;10605;52.968;8.844;2024-03-02T14:14:21;14.20;99.90
20891;DHT22;10605;52.968;8.844;2024-03-02T14:16:47;14.30;99.90
20891;DHT22;10605;52.968;8.844;2024-03-02T14:19:13;14.20;99.90
20891;DHT22;10605;52.968;8.844;2024-03-02T14:21:39;14.20;99.90
20891;DHT22;10605;52.968;8.844;2024-03-02T14:24:05;14.30;99.90
20891;DHT22;10605;52.968;8.844;2024-03-02T14:26:32;14.30;99.90
20891;DHT22;10605;52.968;8.844;2024-03-02T14:28:59;14.30;99.90
20891;DHT22;10605;52.968;8.844;2024-03-02T14:31:26;14.10;99.90
20891;DHT22;10605;52.968;8.844;2024-03-02T14:33:53;14.10;99.90
20891;DHT22;10605;52.968;8.844;2024-03-02T14:36:19;14.10;99.90
20891;DHT22;10605;52.968;8.844;2024-03-02T14:38:45;14.20;99.90
20891;DHT22;10605;52.968;8.844;2024-03-02T14:41:11;14.20;99.90
20891;DHT22;10605;52.968;8.844;2024-03-02T14:43:37;14.20;99.90
20891;DHT22;10605;52.968;8.844;2024-03-02T14:46:03;14.10;99.90
20891;DHT22;10605;52.968;8.844;2024-03-02T14:48:29;14.10;99.90
20891;DHT22;10605;52.968;8.844;2024-03-02T14:50:55;14.00;99.90
20891;DHT22;10605;52.968;8.844;2024-03-02T14:53:21;14.00;99.90
20891;DHT22;10605;52.968;8.844;2024-03-02T14:55:47;14.00;99.90
20891;DHT22;10605;52.968;8.844;2024-03-02T14:58:12;14.00;99.90
20891;DHT22;10605;52.968;8.844;2024-03-02T15:00:38;14.00;99.90
20891;DHT22;10605;52.968;8.844;2024-03-02T15:03:04;14.10;99.90
20891;DHT22;10605;52.968;8.844;2024-03-02T15:05:33;14.00;99.90
20891;DHT22;10605;52.968;8.844;2024-03-02T15:07:58;14.10;99.90
20891;DHT22;10605;52.968;8.844;2024-03-02T15:10:27;14.10;99.90
20891;DHT22;10605;52.968;8.844;2024-03-02T15:12:53;14.10;99.90
20891;DHT22;10605;52.968;8.844;2024-03-02T15:15:19;14.10;99.90
20891;DHT22;10605;52.968;8.844;2024-03-02T15:17:44;14.10;99.90
20891;DHT22;10605;52.968;8.844;2024-03-02T15:20:10;14.10;99.90
20891;DHT22;10605;52.968;8.844;2024-03-02T15:22:36;14.10;99.90
20891;DHT22;10605;52.968;8.844;2024-03-02T15:25:02;14.10;99.90
20891;DHT22;10605;52.968;8.844;2024-03-02T15:27:28;14.10;99.90
20891;DHT22;10605;52.968;8.844;2024-03-02T15:29:53;14.00;99.90
20891;DHT22;10605;52.968;8.844;2024-03-02T15:32:20;14.00;99.90
20891;DHT22;10605;52.968;8.844;2024-03-02T15:34:46;14.00;99.90
20891;DHT22;10605;52.968;8.844;2024-03-02T15:37:12;13.90;99.90
20891;DHT22;10605;52.968;8.844;2024-03-02T15:39:38;13.80;99.90
20891;DHT22;10605;52.968;8.844;2024-03-02T15:42:04;13.80;99.90
20891;DHT22;10605;52.968;8.844;2024-03-02T15:44:30;13.90;99.90
20891;DHT22;10605;52.968;8.844;2024-03-02T15:46:58;13.80;99.90
20891;DHT22;10605;52.968;8.844;2024-03-02T15:49:24;13.80;99.90
20891;DHT22;10605;52.968;8.844;2024-03-02T15:51:49;13.70;99.90
20891;DHT22;10605;52.968;8.844;2024-03-02T15:54:15;13.60;99.90